sensor_id;sensor_type;location;lat;lon;timestamp;temperature;humidity
423;DHT22;198;48.752;9.180;2023-05-10T00:02:08;14.60;99.90
423;DHT22;198;48.752;9.180;2023-05-10T00:04:33;14.60;99.90
423;DHT22;198;48.752;9.180;2023-05-10T00:06:59;14.60;99.90
423;DHT22;198;48.752;9.180;2023-05-10T00:09:24;14.60;99.90
423;DHT22;198;48.752;9.180;2023-05-10T00:11:50;14.60;99.90
423;DHT22;198;48.752;9.180;2023-05-10T00:14:16;14.60;99.90
423;DHT22;198;48.752;9.180;2023-05-10T00:16:42;14.50;99.90
423;DHT22;198;48.752;9.180;2023-05-10T00:19:07;14.50;99.90
423;DHT22;198;48.752;9.180;2023-05-10T00:21:33;14.60;99.90
423;DHT22;198;48.752;9.180;2023-05-10T00:23:59;14.50;99.90
423;DHT22;198;48.752;9.180;2023-05-10T00:26:25;14.50;99.90
423;DHT22;198;48.752;9.180;2023-05-10T00:28:50;14.50;99.90
423;DHT22;198;48.752;9.180;2023-05-10T00:31:16;14.40;99.90
423;DHT22;198;48.752;9.180;2023-05-10T00:33:41;14.40;99.90
423;DHT22;198;48.752;9.180;2023-05-10T00:36:07;14.40;99.90
423;DHT22;198;48.752;9.180;2023-05-10T00:38:33;14.30;99.90
423;DHT22;198;48.752;9.180;2023-05-10T00:40:59;14.30;99.90
423;DHT22;198;48.752;9.180;2023-05-10T00:43:24;14.20;99.90
423;DHT22;198;48.752;9.180;2023-05-10T00:45:50;14.20;99.90
423;DHT22;198;48.752;9.180;2023-05-10T00:48:15;14.20;99.90
423;DHT22;198;48.752;9.180;2023-05-10T00:50:41;14.20;99.90
423;DHT22;198;48.752;9.180;2023-05-10T00:53:07;14.10;99.90
423;DHT22;198;48.752;9.180;2023-05-10T00:55:33;14.10;99.90
423;DHT22;198;48.752;9.180;2023-05-10T00:57:59;14.10;99.90
423;DHT22;198;48.752;9.180;2023-05-10T01:00:24;14.10;99.90
423;DHT22;198;48.752;9.180;2023-05-10T01:02:52;14.00;99.90
423;DHT22;198;48.752;9.180;2023-05-10T01:05:18;13.90;99.90
423;DHT22;198;48.752;9.180;2023-05-10T01:07:44;13.90;99.90
423;DHT22;198;48.752;9.180;2023-05-10T01:10:09;13.90;99.90
423;DHT22;198;48.752;9.180;2023-05-10T01:12:38;13.90;99.90
423;DHT22;198;48.752;9.180;2023-05-10T01:15:09;13.80;99.90
423;DHT22;198;48.752;9.180;2023-05-10T01:17:38;13.80;99.90
423;DHT22;198;48.752;9.180;2023-05-10T01:20:06;13.80;99.90
423;DHT22;198;48.752;9.180;2023-05-10T01:26:03;13.80;99.90
423;DHT22;198;48.752;9.180;2023-05-10T01:34:23;13.70;99.90
423;DHT22;198;48.752;9.180;2023-05-10T01:36:56;13.80;99.90
423;DHT22;198;48.752;9.180;2023-05-10T01:39:44;13.80;99.90
423;DHT22;198;48.752;9.180;2023-05-10T01:42:14;13.80;99.90
423;DHT22;198;48.752;9.180;2023-05-10T01:47:42;13.80;99.90
423;DHT22;198;48.752;9.180;2023-05-10T01:50:15;13.70;99.90
423;DHT22;198;48.752;9.180;2023-05-10T01:52:49;13.70;99.90
423;DHT22;198;48.752;9.180;2023-05-10T01:55:16;13.60;99.90
423;DHT22;198;48.752;9.180;2023-05-10T01:57:44;13.70;99.90
423;DHT22;198;48.752;9.180;2023-05-10T02:00:12;13.60;99.90
423;DHT22;198;48.752;9.180;2023-05-10T02:02:40;13.50;99.90
423;DHT22;198;48.752;9.180;2023-05-10T02:05:08;13.50;99.90
423;DHT22;198;48.752;9.180;2023-05-10T02:07:36;13.50;99.90
423;DHT22;198;48.752;9.180;2023-05-10T02:10:06;13.50;99.90
423;DHT22;198;48.752;9.180;2023-05-10T02:12:36;13.40;99.90
423;DHT22;198;48.752;9.180;2023-05-10T02:15:04;13.40;99.90
423;DHT22;198;48.752;9.180;2023-05-10T02:17:32;13.40;99.90
423;DHT22;198;48.752;9.180;2023-05-10T02:19:59;13.40;99.90
423;DHT22;198;48.752;9.180;2023-05-10T02:22:27;13.40;99.90
423;DHT22;198;48.752;9.180;2023-05-10T02:24:54;13.30;99.90
423;DHT22;198;48.752;9.180;2023-05-10T02:27:20;13.30;99.90
423;DHT22;198;48.752;9.180;2023-05-10T02:29:47;13.30;99.90
423;DHT22;198;48.752;9.180;2023-05-10T02:32:14;13.30;99.90
423;DHT22;198;48.752;9.180;2023-05-10T02:34:41;13.30;99.90
423;DHT22;198;48.752;9.180;2023-05-10T02:37:07;13.40;99.90
423;DHT22;198;48.752;9.180;2023-05-10T02:39:34;13.40;99.90
423;DHT22;198;48.752;9.180;2023-05-10T02:42:00;13.40;99.90
423;DHT22;198;48.752;9.180;2023-05-10T02:44:28;13.40;99.90
423;DHT22;198;48.752;9.180;2023-05-10T02:46:56;13.50;99.90
423;DHT22;198;48.752;9.180;2023-05-10T02:49:22;13.50;99.90
423;DHT22;198;48.752;9.180;2023-05-10T02:51:51;13.50;99.90
423;DHT22;198;48.752;9.180;2023-05-10T02:54:24;13.50;99.90
423;DHT22;198;48.752;9.180;2023-05-10T02:56:54;13.50;99.90
423;DHT22;198;48.752;9.180;2023-05-10T02:59:20;13.50;99.90
423;DHT22;198;48.752;9.180;2023-05-10T03:01:46;13.50;99.90
423;DHT22;198;48.752;9.180;2023-05-10T03:04:12;13.50;99.90
423;DHT22;198;48.752;9.180;2023-05-10T03:06:37;13.50;99.90
423;DHT22;198;48.752;9.180;2023-05-10T03:09:03;13.50;99.90
423;DHT22;198;48.752;9.180;2023-05-10T03:15:17;13.50;99.90
423;DHT22;198;48.752;9.180;2023-05-10T03:18:04;13.50;99.90
423;DHT22;198;48.752;9.180;2023-05-10T03:20:36;13.50;99.90
423;DHT22;198;48.752;9.180;2023-05-10T03:23:26;13.50;99.90
423;DHT22;198;48.752;9.180;2023-05-10T03:25:52;13.50;99.90
423;DHT22;198;48.752;9.180;2023-05-10T03:28:18;13.50;99.90
423;DHT22;198;48.752;9.180;2023-05-10T03:30:46;13.40;99.90
423;DHT22;198;48.752;9.180;2023-05-10T03:33:12;13.40;99.90
423;DHT22;198;48.752;9.180;2023-05-10T03:35:38;13.40;99.90
423;DHT22;198;48.752;9.180;2023-05-10T03:38:04;13.40;99.90
423;DHT22;198;48.752;9.180;2023-05-10T03:40:29;13.40;99.90
423;DHT22;198;48.752;9.180;2023-05-10T03:43:00;13.50;99.90
423;DHT22;198;48.752;9.180;2023-05-10T03:45:25;13.40;99.90
423;DHT22;198;48.752;9.180;2023-05-10T03:47:51;13.50;99.90
423;DHT22;198;48.752;9.180;2023-05-10T03:50:16;13.40;99.90
423;DHT22;198;48.752;9.180;2023-05-10T03:52:43;13.40;99.90
423;DHT22;198;48.752;9.180;2023-05-10T03:55:09;13.40;99.90
423;DHT22;198;48.752;9.180;2023-05-10T03:57:35;13.40;99.90
423;DHT22;198;48.752;9.180;2023-05-10T04:00:00;13.40;99.90
423;DHT22;198;48.752;9.180;2023-05-10T04:02:26;13.40;99.90
423;DHT22;198;48.752;9.180;2023-05-10T04:04:51;13.40;99.90
423;DHT22;198;48.752;9.180;2023-05-10T04:07:17;13.40;99.90
423;DHT22;198;48.752;9.180;2023-05-10T04:09:43;13.40;99.90
423;DHT22;198;48.752;9.180;2023-05-10T04:12:08;13.40;99.90
423;DHT22;198;48.752;9.180;2023-05-10T04:14:34;13.40;99.90
423;DHT22;198;48.752;9.180;2023-05-10T04:16:59;13.50;99.90
423;DHT22;198;48.752;9.180;2023-05-10T04:19:31;13.50;99.90
423;DHT22;198;48.752;9.180;2023-05-10T04:21:57;13.50;99.90
423;DHT22;198;48.752;9.180;2023-05-10T04:24:23;13.50;99.90
423;DHT22;198;48.752;9.180;2023-05-10T04:26:48;13.40;99.90
423;DHT22;198;48.752;9.180;2023-05-10T04:29:14;13.40;99.90
423;DHT22;198;48.752;9.180;2023-05-10T04:31:39;13.40;99.90
423;DHT22;198;48.752;9.180;2023-05-10T04:34:05;13.40;99.90
423;DHT22;198;48.752;9.180;2023-05-10T04:36:31;13.50;99.90
423;DHT22;198;48.752;9.180;2023-05-10T04:38:59;13.40;99.90
423;DHT22;198;48.752;9.180;2023-05-10T04:41:24;13.30;99.90
423;DHT22;198;48.752;9.180;2023-05-10T04:43:50;13.40;99.90
423;DHT22;198;48.752;9.180;2023-05-10T04:46:16;13.40;99.90
423;DHT22;198;48.752;9.180;2023-05-10T04:48:42;13.50;99.90
423;DHT22;198;48.752;9.180;2023-05-10T04:51:07;13.50;99.90
423;DHT22;198;48.752;9.180;2023-05-10T04:53:33;13.50;99.90
423;DHT22;198;48.752;9.180;2023-05-10T04:55:58;13.50;99.90
423;DHT22;198;48.752;9.180;2023-05-10T04:58:24;13.60;99.90
423;DHT22;198;48.752;9.180;2023-05-10T05:00:49;13.60;99.90
423;DHT22;198;48.752;9.180;2023-05-10T05:03:15;13.60;99.90
423;DHT22;198;48.752;9.180;2023-05-10T05:05:41;13.70;99.90
423;DHT22;198;48.752;9.180;2023-05-10T05:08:06;13.70;99.90
423;DHT22;198;48.752;9.180;2023-05-10T05:10:32;13.80;99.90
423;DHT22;198;48.752;9.180;2023-05-10T05:12:57;13.80;99.90
423;DHT22;198;48.752;9.180;2023-05-10T05:15:23;13.90;99.90
423;DHT22;198;48.752;9.180;2023-05-10T05:17:48;14.00;99.90
423;DHT22;198;48.752;9.180;2023-05-10T05:20:14;14.10;99.90
423;DHT22;198;48.752;9.180;2023-05-10T05:22:40;14.20;99.90
423;DHT22;198;48.752;9.180;2023-05-10T05:25:05;14.30;99.90
423;DHT22;198;48.752;9.180;2023-05-10T05:27:31;14.30;99.90
423;DHT22;198;48.752;9.180;2023-05-10T05:29:57;14.40;99.90
423;DHT22;198;48.752;9.180;2023-05-10T05:32:24;14.30;99.90
423;DHT22;198;48.752;9.180;2023-05-10T05:34:50;14.40;99.90
423;DHT22;198;48.752;9.180;2023-05-10T05:37:20;14.40;99.90
423;DHT22;198;48.752;9.180;2023-05-10T05:39:47;14.50;99.90
423;DHT22;198;48.752;9.180;2023-05-10T05:42:13;14.70;99.90
423;DHT22;198;48.752;9.180;2023-05-10T05:44:39;14.70;99.90
423;DHT22;198;48.752;9.180;2023-05-10T05:47:04;14.70;99.90
423;DHT22;198;48.752;9.180;2023-05-10T05:49:30;14.70;99.90
423;DHT22;198;48.752;9.180;2023-05-10T05:52:03;14.70;99.90
423;DHT22;198;48.752;9.180;2023-05-10T05:54:29;14.70;99.90
423;DHT22;198;48.752;9.180;2023-05-10T05:56:58;14.70;99.90
423;DHT22;198;48.752;9.180;2023-05-10T05:59:24;14.80;99.90
423;DHT22;198;48.752;9.180;2023-05-10T06:01:50;14.90;99.90
423;DHT22;198;48.752;9.180;2023-05-10T06:04:16;15.00;99.90
423;DHT22;198;48.752;9.180;2023-05-10T06:06:41;15.00;99.90
423;DHT22;198;48.752;9.180;2023-05-10T06:09:07;15.10;99.90
423;DHT22;198;48.752;9.180;2023-05-10T06:11:34;15.20;99.90
423;DHT22;198;48.752;9.180;2023-05-10T06:13:59;15.30;99.90
423;DHT22;198;48.752;9.180;2023-05-10T06:16:25;15.40;99.90
423;DHT22;198;48.752;9.180;2023-05-10T06:18:51;15.60;99.90
423;DHT22;198;48.752;9.180;2023-05-10T06:21:16;15.70;99.90
423;DHT22;198;48.752;9.180;2023-05-10T06:23:42;15.60;99.90
423;DHT22;198;48.752;9.180;2023-05-10T06:26:08;15.60;99.90
423;DHT22;198;48.752;9.180;2023-05-10T06:28:34;15.60;99.90
423;DHT22;198;48.752;9.180;2023-05-10T06:31:00;15.70;99.90
423;DHT22;198;48.752;9.180;2023-05-10T06:33:25;15.60;99.90
423;DHT22;198;48.752;9.180;2023-05-10T06:35:51;15.50;99.90
423;DHT22;198;48.752;9.180;2023-05-10T06:38:16;15.50;99.90
423;DHT22;198;48.752;9.180;2023-05-10T06:40:42;15.50;99.90
423;DHT22;198;48.752;9.180;2023-05-10T06:43:08;15.50;99.90
423;DHT22;198;48.752;9.180;2023-05-10T06:45:33;15.50;99.90
423;DHT22;198;48.752;9.180;2023-05-10T06:47:59;15.50;99.90
423;DHT22;198;48.752;9.180;2023-05-10T06:50:25;15.40;99.90
423;DHT22;198;48.752;9.180;2023-05-10T06:52:50;15.50;99.90
423;DHT22;198;48.752;9.180;2023-05-10T06:55:16;15.30;99.90
423;DHT22;198;48.752;9.180;2023-05-10T06:57:41;15.20;99.90
423;DHT22;198;48.752;9.180;2023-05-10T07:00:07;15.20;99.90
423;DHT22;198;48.752;9.180;2023-05-10T07:02:35;15.10;99.90
423;DHT22;198;48.752;9.180;2023-05-10T07:05:00;15.10;99.90
423;DHT22;198;48.752;9.180;2023-05-10T07:07:26;15.20;99.90
423;DHT22;198;48.752;9.180;2023-05-10T07:09:51;15.40;99.90
423;DHT22;198;48.752;9.180;2023-05-10T07:12:17;15.60;99.90
423;DHT22;198;48.752;9.180;2023-05-10T07:14:43;15.60;99.90
423;DHT22;198;48.752;9.180;2023-05-10T07:17:08;15.80;99.90
423;DHT22;198;48.752;9.180;2023-05-10T07:19:34;16.20;99.90
423;DHT22;198;48.752;9.180;2023-05-10T07:22:00;16.40;99.90
423;DHT22;198;48.752;9.180;2023-05-10T07:24:26;16.60;99.90
423;DHT22;198;48.752;9.180;2023-05-10T07:26:51;16.80;99.90
423;DHT22;198;48.752;9.180;2023-05-10T07:29:17;16.90;99.90
423;DHT22;198;48.752;9.180;2023-05-10T07:31:42;17.10;99.90
423;DHT22;198;48.752;9.180;2023-05-10T07:34:08;17.10;99.90
423;DHT22;198;48.752;9.180;2023-05-10T07:36:34;17.20;99.90
423;DHT22;198;48.752;9.180;2023-05-10T07:39:00;17.30;99.90
423;DHT22;198;48.752;9.180;2023-05-10T07:41:26;17.20;99.90
423;DHT22;198;48.752;9.180;2023-05-10T07:43:52;17.20;99.90
423;DHT22;198;48.752;9.180;2023-05-10T07:46:17;17.30;99.90
423;DHT22;198;48.752;9.180;2023-05-10T07:48:45;17.30;99.90
423;DHT22;198;48.752;9.180;2023-05-10T07:51:10;17.30;99.90
423;DHT22;198;48.752;9.180;2023-05-10T07:53:36;17.30;99.90
423;DHT22;198;48.752;9.180;2023-05-10T07:56:23;17.30;99.90
423;DHT22;198;48.752;9.180;2023-05-10T07:58:51;17.30;99.90
423;DHT22;198;48.752;9.180;2023-05-10T08:01:16;17.30;99.90
423;DHT22;198;48.752;9.180;2023-05-10T08:03:42;17.20;99.90
423;DHT22;198;48.752;9.180;2023-05-10T08:06:07;17.30;99.90
423;DHT22;198;48.752;9.180;2023-05-10T08:08:33;17.40;99.90
423;DHT22;198;48.752;9.180;2023-05-10T08:10:58;17.40;99.90
423;DHT22;198;48.752;9.180;2023-05-10T08:13:24;17.60;99.90
423;DHT22;198;48.752;9.180;2023-05-10T08:15:49;17.80;99.90
423;DHT22;198;48.752;9.180;2023-05-10T08:18:18;17.80;99.90
423;DHT22;198;48.752;9.180;2023-05-10T08:20:43;17.80;99.90
423;DHT22;198;48.752;9.180;2023-05-10T08:23:09;17.80;99.90
423;DHT22;198;48.752;9.180;2023-05-10T08:25:34;17.80;99.90
423;DHT22;198;48.752;9.180;2023-05-10T08:28:00;17.90;99.90
423;DHT22;198;48.752;9.180;2023-05-10T08:30:25;18.10;99.90
423;DHT22;198;48.752;9.180;2023-05-10T08:32:51;18.10;99.90
423;DHT22;198;48.752;9.180;2023-05-10T08:35:16;18.20;99.90
423;DHT22;198;48.752;9.180;2023-05-10T08:37:42;18.30;99.90
423;DHT22;198;48.752;9.180;2023-05-10T08:40:08;18.40;99.90
423;DHT22;198;48.752;9.180;2023-05-10T08:42:40;18.50;99.90
423;DHT22;198;48.752;9.180;2023-05-10T08:45:10;18.70;99.90
423;DHT22;198;48.752;9.180;2023-05-10T08:47:37;18.90;99.90
423;DHT22;198;48.752;9.180;2023-05-10T08:50:03;18.90;99.90
423;DHT22;198;48.752;9.180;2023-05-10T08:52:30;18.90;99.90
423;DHT22;198;48.752;9.180;2023-05-10T08:54:57;18.90;99.90
423;DHT22;198;48.752;9.180;2023-05-10T08:57:23;18.90;99.90
423;DHT22;198;48.752;9.180;2023-05-10T08:59:49;19.00;99.90
423;DHT22;198;48.752;9.180;2023-05-10T09:02:14;19.10;99.90
423;DHT22;198;48.752;9.180;2023-05-10T09:04:40;19.00;99.90
423;DHT22;198;48.752;9.180;2023-05-10T09:07:07;18.90;99.90
423;DHT22;198;48.752;9.180;2023-05-10T09:09:35;18.80;99.90
423;DHT22;198;48.752;9.180;2023-05-10T09:12:01;18.60;99.90
423;DHT22;198;48.752;9.180;2023-05-10T09:14:26;18.70;99.90
423;DHT22;198;48.752;9.180;2023-05-10T09:16:53;18.80;99.90
423;DHT22;198;48.752;9.180;2023-05-10T09:19:20;18.80;99.90
423;DHT22;198;48.752;9.180;2023-05-10T09:21:45;18.80;99.90
423;DHT22;198;48.752;9.180;2023-05-10T09:24:12;18.80;99.90
423;DHT22;198;48.752;9.180;2023-05-10T09:26:46;18.50;99.90
423;DHT22;198;48.752;9.180;2023-05-10T09:29:14;18.00;99.90
423;DHT22;198;48.752;9.180;2023-05-10T09:31:50;17.50;99.90
423;DHT22;198;48.752;9.180;2023-05-10T09:34:29;17.10;99.90
423;DHT22;198;48.752;9.180;2023-05-10T09:36:57;16.80;99.90
423;DHT22;198;48.752;9.180;2023-05-10T09:39:34;16.70;99.90
423;DHT22;198;48.752;9.180;2023-05-10T09:42:02;16.80;99.90
423;DHT22;198;48.752;9.180;2023-05-10T09:44:29;17.10;99.90
423;DHT22;198;48.752;9.180;2023-05-10T09:46:55;17.40;99.90
423;DHT22;198;48.752;9.180;2023-05-10T09:49:21;17.80;99.90
423;DHT22;198;48.752;9.180;2023-05-10T09:51:47;18.40;99.90
423;DHT22;198;48.752;9.180;2023-05-10T09:54:14;19.00;99.90
423;DHT22;198;48.752;9.180;2023-05-10T09:56:41;19.50;99.90
423;DHT22;198;48.752;9.180;2023-05-10T09:59:09;19.80;99.90
423;DHT22;198;48.752;9.180;2023-05-10T10:01:35;20.20;99.90
423;DHT22;198;48.752;9.180;2023-05-10T10:04:08;20.70;99.90
423;DHT22;198;48.752;9.180;2023-05-10T10:06:38;21.40;99.90
423;DHT22;198;48.752;9.180;2023-05-10T10:09:04;21.90;98.70
423;DHT22;198;48.752;9.180;2023-05-10T10:11:30;22.10;97.10
423;DHT22;198;48.752;9.180;2023-05-10T10:13:56;22.00;95.70
423;DHT22;198;48.752;9.180;2023-05-10T10:16:22;22.00;95.20
423;DHT22;198;48.752;9.180;2023-05-10T10:18:48;21.90;94.50
423;DHT22;198;48.752;9.180;2023-05-10T10:21:15;22.30;94.60
423;DHT22;198;48.752;9.180;2023-05-10T10:23:40;22.70;92.50
423;DHT22;198;48.752;9.180;2023-05-10T10:26:06;23.20;87.80
423;DHT22;198;48.752;9.180;2023-05-10T10:28:39;22.90;86.50
423;DHT22;198;48.752;9.180;2023-05-10T10:34:06;21.60;89.00
423;DHT22;198;48.752;9.180;2023-05-10T10:36:39;21.10;88.00
423;DHT22;198;48.752;9.180;2023-05-10T10:39:09;20.80;90.10
423;DHT22;198;48.752;9.180;2023-05-10T10:41:40;20.60;90.30
423;DHT22;198;48.752;9.180;2023-05-10T11:00:18;22.70;81.10
423;DHT22;198;48.752;9.180;2023-05-10T11:02:45;21.60;81.50
423;DHT22;198;48.752;9.180;2023-05-10T11:07:59;20.00;85.00
423;DHT22;198;48.752;9.180;2023-05-10T11:10:26;19.40;86.80
423;DHT22;198;48.752;9.180;2023-05-10T11:13:03;19.10;87.00
423;DHT22;198;48.752;9.180;2023-05-10T11:15:37;18.70;87.50
423;DHT22;198;48.752;9.180;2023-05-10T11:18:19;18.30;88.20
423;DHT22;198;48.752;9.180;2023-05-10T11:20:50;18.00;90.40
423;DHT22;198;48.752;9.180;2023-05-10T11:23:16;17.90;90.80
423;DHT22;198;48.752;9.180;2023-05-10T11:25:43;18.10;91.10
423;DHT22;198;48.752;9.180;2023-05-10T11:28:12;18.20;88.90
423;DHT22;198;48.752;9.180;2023-05-10T11:30:39;18.30;87.70
423;DHT22;198;48.752;9.180;2023-05-10T11:33:05;18.40;86.90
423;DHT22;198;48.752;9.180;2023-05-10T11:35:37;18.50;85.30
423;DHT22;198;48.752;9.180;2023-05-10T11:38:08;18.40;81.80
423;DHT22;198;48.752;9.180;2023-05-10T11:40:35;18.20;81.80
423;DHT22;198;48.752;9.180;2023-05-10T11:43:00;17.90;83.70
423;DHT22;198;48.752;9.180;2023-05-10T11:45:26;17.70;84.00
423;DHT22;198;48.752;9.180;2023-05-10T11:47:53;17.50;87.60
423;DHT22;198;48.752;9.180;2023-05-10T11:50:18;17.50;89.70
423;DHT22;198;48.752;9.180;2023-05-10T11:52:44;17.50;89.80
423;DHT22;198;48.752;9.180;2023-05-10T11:55:10;17.40;90.50
423;DHT22;198;48.752;9.180;2023-05-10T11:57:36;17.30;91.60
423;DHT22;198;48.752;9.180;2023-05-10T12:00:04;17.20;91.70
423;DHT22;198;48.752;9.180;2023-05-10T12:02:30;17.10;92.60
423;DHT22;198;48.752;9.180;2023-05-10T12:04:55;17.20;93.50
423;DHT22;198;48.752;9.180;2023-05-10T12:07:21;17.50;94.00
423;DHT22;198;48.752;9.180;2023-05-10T12:12:39;18.20;92.50
423;DHT22;198;48.752;9.180;2023-05-10T12:15:31;18.40;91.00
423;DHT22;198;48.752;9.180;2023-05-10T12:17:56;18.50;91.50
423;DHT22;198;48.752;9.180;2023-05-10T12:20:23;19.30;91.40
423;DHT22;198;48.752;9.180;2023-05-10T12:22:54;19.80;89.70
423;DHT22;198;48.752;9.180;2023-05-10T12:25:21;20.30;89.50
423;DHT22;198;48.752;9.180;2023-05-10T12:27:55;20.70;84.10
423;DHT22;198;48.752;9.180;2023-05-10T12:32:47;21.00;81.40
423;DHT22;198;48.752;9.180;2023-05-10T12:35:12;21.00;78.40
423;DHT22;198;48.752;9.180;2023-05-10T12:37:38;20.90;79.00
423;DHT22;198;48.752;9.180;2023-05-10T12:40:07;20.40;77.70
423;DHT22;198;48.752;9.180;2023-05-10T12:42:34;20.00;79.90
423;DHT22;198;48.752;9.180;2023-05-10T12:45:01;19.70;81.40
423;DHT22;198;48.752;9.180;2023-05-10T12:47:27;19.60;85.00
423;DHT22;198;48.752;9.180;2023-05-10T12:49:52;19.40;83.20
423;DHT22;198;48.752;9.180;2023-05-10T12:52:18;19.20;82.80
423;DHT22;198;48.752;9.180;2023-05-10T12:54:43;18.90;83.90
423;DHT22;198;48.752;9.180;2023-05-10T12:57:09;18.70;84.20
423;DHT22;198;48.752;9.180;2023-05-10T12:59:34;18.30;85.10
423;DHT22;198;48.752;9.180;2023-05-10T13:02:00;18.10;85.20
423;DHT22;198;48.752;9.180;2023-05-10T13:04:25;17.70;86.60
423;DHT22;198;48.752;9.180;2023-05-10T13:06:51;17.60;88.40
423;DHT22;198;48.752;9.180;2023-05-10T13:09:16;17.40;88.70
423;DHT22;198;48.752;9.180;2023-05-10T13:11:42;17.40;89.40
423;DHT22;198;48.752;9.180;2023-05-10T13:14:07;17.50;90.10
423;DHT22;198;48.752;9.180;2023-05-10T13:16:33;17.70;90.50
423;DHT22;198;48.752;9.180;2023-05-10T13:18:58;18.20;89.30
423;DHT22;198;48.752;9.180;2023-05-10T13:21:24;18.70;88.50
423;DHT22;198;48.752;9.180;2023-05-10T13:23:50;19.00;87.20
423;DHT22;198;48.752;9.180;2023-05-10T13:26:16;19.40;84.90
423;DHT22;198;48.752;9.180;2023-05-10T13:28:41;19.70;83.70
423;DHT22;198;48.752;9.180;2023-05-10T13:31:07;19.90;81.80
423;DHT22;198;48.752;9.180;2023-05-10T13:33:33;20.10;81.60
423;DHT22;198;48.752;9.180;2023-05-10T13:35:58;20.20;82.20
423;DHT22;198;48.752;9.180;2023-05-10T13:38:24;20.50;79.90
423;DHT22;198;48.752;9.180;2023-05-10T13:40:49;20.70;77.20
423;DHT22;198;48.752;9.180;2023-05-10T13:43:18;20.80;75.50
423;DHT22;198;48.752;9.180;2023-05-10T13:45:43;20.70;75.70
423;DHT22;198;48.752;9.180;2023-05-10T13:48:09;20.50;78.40
423;DHT22;198;48.752;9.180;2023-05-10T13:50:34;20.20;78.20
423;DHT22;198;48.752;9.180;2023-05-10T13:53:00;20.00;78.60
423;DHT22;198;48.752;9.180;2023-05-10T13:55:25;20.10;79.50
423;DHT22;198;48.752;9.180;2023-05-10T13:57:51;20.30;77.30
423;DHT22;198;48.752;9.180;2023-05-10T14:00:17;20.50;74.60
423;DHT22;198;48.752;9.180;2023-05-10T14:02:42;20.80;75.90
423;DHT22;198;48.752;9.180;2023-05-10T14:05:08;21.00;74.60
423;DHT22;198;48.752;9.180;2023-05-10T14:07:34;21.10;70.30
423;DHT22;198;48.752;9.180;2023-05-10T14:10:00;21.10;72.10
423;DHT22;198;48.752;9.180;2023-05-10T14:12:25;21.20;73.40
423;DHT22;198;48.752;9.180;2023-05-10T14:14:51;21.20;72.00
423;DHT22;198;48.752;9.180;2023-05-10T14:17:17;21.30;69.90
423;DHT22;198;48.752;9.180;2023-05-10T14:19:43;21.20;68.40
423;DHT22;198;48.752;9.180;2023-05-10T14:22:08;21.10;67.10
423;DHT22;198;48.752;9.180;2023-05-10T14:24:34;21.00;65.50
423;DHT22;198;48.752;9.180;2023-05-10T14:26:59;20.80;65.00
423;DHT22;198;48.752;9.180;2023-05-10T14:29:25;20.80;66.60
423;DHT22;198;48.752;9.180;2023-05-10T14:31:51;20.80;69.60
423;DHT22;198;48.752;9.180;2023-05-10T14:34:16;20.70;68.30
423;DHT22;198;48.752;9.180;2023-05-10T14:36:42;20.50;69.30
423;DHT22;198;48.752;9.180;2023-05-10T14:39:07;20.50;69.50
423;DHT22;198;48.752;9.180;2023-05-10T14:41:35;20.60;66.80
423;DHT22;198;48.752;9.180;2023-05-10T14:44:00;20.50;67.60
423;DHT22;198;48.752;9.180;2023-05-10T14:46:28;20.50;69.40
423;DHT22;198;48.752;9.180;2023-05-10T14:48:55;20.60;67.90
423;DHT22;198;48.752;9.180;2023-05-10T14:51:20;20.80;67.20
423;DHT22;198;48.752;9.180;2023-05-10T14:53:47;20.80;64.70
423;DHT22;198;48.752;9.180;2023-05-10T14:56:13;20.80;63.90
423;DHT22;198;48.752;9.180;2023-05-10T14:58:38;20.60;64.00
423;DHT22;198;48.752;9.180;2023-05-10T15:01:04;20.50;64.60
423;DHT22;198;48.752;9.180;2023-05-10T15:03:30;20.40;64.90
423;DHT22;198;48.752;9.180;2023-05-10T15:05:55;20.50;64.80
423;DHT22;198;48.752;9.180;2023-05-10T15:08:22;20.80;64.60
423;DHT22;198;48.752;9.180;2023-05-10T15:10:50;20.90;63.50
423;DHT22;198;48.752;9.180;2023-05-10T15:13:15;20.90;63.20
423;DHT22;198;48.752;9.180;2023-05-10T15:15:41;20.90;63.40
423;DHT22;198;48.752;9.180;2023-05-10T15:18:06;20.80;64.60
423;DHT22;198;48.752;9.180;2023-05-10T15:20:32;20.70;62.60
423;DHT22;198;48.752;9.180;2023-05-10T15:22:57;20.60;63.90
423;DHT22;198;48.752;9.180;2023-05-10T15:25:23;20.60;65.10
423;DHT22;198;48.752;9.180;2023-05-10T15:27:49;20.60;64.10
423;DHT22;198;48.752;9.180;2023-05-10T15:30:14;20.60;63.00
423;DHT22;198;48.752;9.180;2023-05-10T15:32:40;20.60;64.20
423;DHT22;198;48.752;9.180;2023-05-10T15:35:07;20.60;65.50
423;DHT22;198;48.752;9.180;2023-05-10T15:37:33;20.70;65.60
423;DHT22;198;48.752;9.180;2023-05-10T15:39:59;20.90;64.70
423;DHT22;198;48.752;9.180;2023-05-10T15:42:32;21.00;64.90
423;DHT22;198;48.752;9.180;2023-05-10T15:44:58;21.10;64.00
423;DHT22;198;48.752;9.180;2023-05-10T15:47:23;21.10;65.30
423;DHT22;198;48.752;9.180;2023-05-10T15:49:49;21.10;65.10
423;DHT22;198;48.752;9.180;2023-05-10T15:52:14;20.90;65.80
423;DHT22;198;48.752;9.180;2023-05-10T15:54:41;20.90;64.80
423;DHT22;198;48.752;9.180;2023-05-10T15:57:06;20.90;64.20
423;DHT22;198;48.752;9.180;2023-05-10T15:59:32;21.00;66.00
423;DHT22;198;48.752;9.180;2023-05-10T16:01:57;21.10;65.30
423;DHT22;198;48.752;9.180;2023-05-10T16:04:23;21.00;61.70
423;DHT22;198;48.752;9.180;2023-05-10T16:06:48;20.70;61.60
423;DHT22;198;48.752;9.180;2023-05-10T16:09:14;20.60;61.60
423;DHT22;198;48.752;9.180;2023-05-10T16:11:42;20.30;63.90
423;DHT22;198;48.752;9.180;2023-05-10T16:14:08;20.10;64.20
423;DHT22;198;48.752;9.180;2023-05-10T16:16:34;20.00;64.00
423;DHT22;198;48.752;9.180;2023-05-10T16:19:00;20.00;64.70
423;DHT22;198;48.752;9.180;2023-05-10T16:21:26;19.90;64.90
423;DHT22;198;48.752;9.180;2023-05-10T16:23:53;19.90;64.50
423;DHT22;198;48.752;9.180;2023-05-10T16:26:19;19.90;65.90
423;DHT22;198;48.752;9.180;2023-05-10T16:28:46;19.80;65.10
423;DHT22;198;48.752;9.180;2023-05-10T16:31:11;19.70;65.20
423;DHT22;198;48.752;9.180;2023-05-10T16:33:37;19.70;66.00
423;DHT22;198;48.752;9.180;2023-05-10T16:36:02;19.50;63.90
423;DHT22;198;48.752;9.180;2023-05-10T16:38:30;19.40;65.80
423;DHT22;198;48.752;9.180;2023-05-10T16:40:56;19.30;65.30
423;DHT22;198;48.752;9.180;2023-05-10T16:43:21;19.10;65.00
423;DHT22;198;48.752;9.180;2023-05-10T16:45:47;18.90;64.60
423;DHT22;198;48.752;9.180;2023-05-10T16:48:12;18.70;65.70
423;DHT22;198;48.752;9.180;2023-05-10T16:50:38;18.40;66.70
423;DHT22;198;48.752;9.180;2023-05-10T16:53:07;18.10;68.60
423;DHT22;198;48.752;9.180;2023-05-10T16:55:32;17.90;67.20
423;DHT22;198;48.752;9.180;2023-05-10T16:57:58;17.70;67.40
423;DHT22;198;48.752;9.180;2023-05-10T17:00:25;17.50;70.70
423;DHT22;198;48.752;9.180;2023-05-10T17:02:51;17.40;73.40
423;DHT22;198;48.752;9.180;2023-05-10T17:05:17;17.30;73.90
423;DHT22;198;48.752;9.180;2023-05-10T17:07:43;17.10;75.90
423;DHT22;198;48.752;9.180;2023-05-10T17:10:09;17.00;79.90
423;DHT22;198;48.752;9.180;2023-05-10T17:12:35;17.00;80.70
423;DHT22;198;48.752;9.180;2023-05-10T17:15:00;16.90;78.90